Time;durP1;ratioP1;P1;durP2;ratioP2;P2;SDS_P1;SDS_P2;PMS_P1;PMS_P2;Temp;Humidity;BMP_temperature;BMP_pressure;BME280_temperature;BME280_humidity;BME280_pressure;Samples;Min_cycle;Max_cycle;Signal;HPM_P1;HPM_P2
2023/06/27 12:02:24;;;;;;;7.05;4.57;;;23.30;59.10;;;;;;5943835;23;20210;31
2023/06/27 12:04:56;;;;;;;12.85;4.50;;;23.30;59.00;;;;;;4807074;29;20202;-87
2023/06/27 12:07:27;;;;;;;11.32;4.78;;;23.30;59.00;;;;;;4811856;29;20262;-86
2023/06/27 12:10:08;;;;;;;15.98;4.82;;;23.40;59.00;;;;;;4779193;29;20680;-87
2023/06/27 12:12:44;;;;;;;5.15;4.13;;;23.30;59.10;;;;;;4803210;29;20194;-87
2023/06/27 12:15:15;;;;;;;8.13;4.38;;;23.30;59.10;;;;;;4803799;29;20241;-87
2023/06/27 12:18:00;;;;;;;12.82;4.82;;;23.30;59.10;;;;;;4787458;29;20199;-87
2023/06/27 12:20:49;;;;;;;8.52;4.70;;;23.30;59.10;;;;;;4816804;29;20619;-88
2023/06/27 12:23:15;;;;;;;11.10;4.65;;;23.30;59.00;;;;;;4785692;29;20233;-86
2023/06/27 12:25:45;;;;;;;10.43;4.03;;;23.30;59.00;;;;;;4798090;29;20214;-88
2023/06/27 12:28:15;;;;;;;9.95;4.65;;;23.40;58.90;;;;;;4779927;29;20191;-87
2023/06/27 12:30:47;;;;;;;7.53;4.40;;;23.40;58.90;;;;;;4786887;29;20194;-88
2023/06/27 12:33:24;;;;;;;7.68;4.18;;;23.40;58.80;;;;;;4792317;29;20223;-88
2023/06/27 12:36:00;;;;;;;13.35;4.60;;;23.30;58.80;;;;;;4769377;30;20234;-89
2023/06/27 12:38:30;;;;;;;15.57;4.43;;;23.40;58.90;;;;;;4750822;30;20226;-88
2023/06/27 12:41:08;;;;;;;13.23;4.53;;;23.40;58.80;;;;;;4753991;30;20200;-87
2023/06/27 12:43:54;;;;;;;11.25;4.45;;;23.40;58.80;;;;;;4754679;30;20200;-87
2023/06/27 12:46:27;;;;;;;8.27;4.47;;;23.40;58.80;;;;;;4763383;30;20215;-88
2023/06/27 12:48:57;;;;;;;7.18;4.63;;;23.40;58.70;;;;;;4764596;30;20277;-87
2023/06/27 12:51:28;;;;;;;7.85;4.22;;;23.30;58.60;;;;;;4724561;30;20190;-87
2023/06/27 12:53:58;;;;;;;11.05;4.80;;;23.40;58.70;;;;;;4707042;30;20298;-88
2023/06/27 12:56:29;;;;;;;9.18;5.03;;;23.40;58.80;;;;;;4719731;30;20226;-87
2023/06/27 12:58:59;;;;;;;7.57;4.78;;;23.40;58.70;;;;;;4694976;30;20290;-87
2023/06/27 13:01:44;;;;;;;6.97;4.40;;;23.40;58.70;;;;;;4722265;30;20238;-87
2023/06/27 13:04:22;;;;;;;7.45;4.13;;;23.40;58.60;;;;;;4707082;30;20237;-86
2023/06/27 13:06:49;;;;;;;9.73;4.55;;;23.40;58.40;;;;;;4701684;30;20624;-83
2023/06/27 13:09:20;;;;;;;8.10;4.47;;;23.40;58.30;;;;;;4722605;30;20538;-86
2023/06/27 13:12:18;;;;;;;6.47;3.90;;;23.40;58.30;;;;;;4705341;30;20633;-87
2023/06/27 13:14:51;;;;;;;9.48;4.32;;;23.40;58.00;;;;;;4722060;30;20281;-86
2023/06/27 13:17:25;;;;;;;6.53;4.20;;;23.40;57.70;;;;;;4732544;30;20301;-85
2023/06/27 13:19:55;;;;;;;8.23;4.25;;;23.40;57.50;;;;;;4742063;30;20196;-85
2023/06/27 13:22:33;;;;;;;6.65;4.00;;;23.40;57.50;;;;;;4766190;29;20242;-85
2023/06/27 13:25:03;;;;;;;8.48;4.10;;;23.50;57.50;;;;;;4781624;29;20221;-87
2023/06/27 13:27:41;;;;;;;9.02;4.10;;;23.50;57.60;;;;;;4781152;29;20194;-87
2023/06/27 13:30:12;;;;;;;4.90;4.10;;;23.40;57.60;;;;;;4780775;29;20187;-86
2023/06/27 13:32:42;;;;;;;6.68;4.38;;;23.50;57.50;;;;;;4781751;29;20633;-87
2023/06/27 13:35:08;;;;;;;6.63;3.85;;;23.50;57.30;;;;;;4796553;29;20194;-86
2023/06/27 13:37:36;;;;;;;8.57;4.13;;;23.40;57.20;;;;;;4796498;29;20231;-87
2023/06/27 13:40:05;;;;;;;7.50;3.40;;;23.40;57.20;;;;;;4782852;29;20727;-87
2023/06/27 13:42:39;;;;;;;4.97;4.32;;;23.50;57.20;;;;;;4795804;29;20242;-87
2023/06/27 13:45:07;;;;;;;4.72;3.63;;;23.50;57.00;;;;;;4784090;29;20663;-87
2023/06/27 16:28:36;;;;;;;5.22;4.50;;;23.50;57.50;;;;;;4828043;29;20263;-87
2023/06/27 16:31:09;;;;;;;4.35;3.95;;;23.50;57.40;;;;;;4813290;29;20175;-87
2023/06/27 16:33:35;;;;;;;4.57;4.10;;;23.50;57.30;;;;;;4796984;29;20191;-85
2023/06/27 16:36:07;;;;;;;4.50;4.10;;;23.50;57.30;;;;;;4813447;29;20240;-85
2023/06/27 16:38:37;;;;;;;5.22;4.30;;;23.50;57.30;;;;;;4785545;29;20190;-86
2023/06/27 16:41:08;;;;;;;5.63;4.10;;;23.50;57.30;;;;;;4782055;29;20224;-86
2023/06/27 16:43:39;;;;;;;4.45;4.05;;;23.50;57.20;;;;;;4784132;29;20214;-86
2023/06/27 16:46:09;;;;;;;7.68;4.30;;;23.50;57.20;;;;;;4783098;29;20190;-86
2023/06/27 16:48:39;;;;;;;5.00;4.50;;;23.50;57.30;;;;;;4783888;29;20214;-86
2023/06/27 16:51:09;;;;;;;5.30;4.53;;;23.50;57.40;;;;;;4782200;29;20207;-86
2023/06/27 16:53:40;;;;;;;7.68;4.45;;;23.50;57.40;;;;;;4782739;29;20187;-86
2023/06/27 16:56:12;;;;;;;4.72;4.28;;;23.50;57.40;;;;;;4782406;29;20183;-85
2023/06/27 16:58:42;;;;;;;5.28;4.28;;;23.40;57.40;;;;;;4796750;29;20195;-86
2023/06/27 17:01:12;;;;;;;7.53;4.35;;;23.40;57.30;;;;;;4779074;29;20226;-85
2023/06/27 17:03:37;;;;;;;6.70;4.30;;;23.50;57.40;;;;;;4780057;29;20255;-86
2023/06/27 17:06:05;;;;;;;5.03;4.55;;;23.40;57.40;;;;;;4792907;29;20250;-85
2023/06/27 17:08:36;;;;;;;4.78;4.15;;;23.50;57.40;;;;;;4777746;29;20243;-85
2023/06/27 17:11:02;;;;;;;6.93;4.57;;;23.40;57.40;;;;;;4777904;29;20290;-86
2023/06/27 17:13:29;;;;;;;4.82;4.35;;;23.40;57.30;;;;;;4795468;29;20171;-87
2023/06/27 17:16:11;;;;;;;4.70;4.30;;;23.40;57.30;;;;;;4817409;29;20173;-88
2023/06/27 17:18:40;;;;;;;4.43;4.03;;;23.40;57.30;;;;;;4767020;30;20216;-85
2023/06/27 17:21:09;;;;;;;4.50;4.10;;;23.40;57.20;;;;;;4779823;30;20198;-85
2023/06/27 17:23:39;;;;;;;4.53;4.00;;;23.40;57.20;;;;;;4786094;30;20187;-86
2023/06/27 17:26:26;;;;;;;5.78;4.40;;;23.50;57.20;;;;;;4786669;30;20224;-87
2023/06/27 17:28:55;;;;;;;4.88;4.40;;;23.50;57.30;;;;;;4762149;30;20385;-85
2023/06/27 17:31:37;;;;;;;5.57;4.40;;;23.50;57.30;;;;;;4757098;30;20193;-86
2023/06/27 17:34:07;;;;;;;5.80;4.13;;;23.50;57.30;;;;;;4758222;30;20280;-85
2023/06/27 17:36:40;;;;;;;5.35;4.05;;;23.50;57.30;;;;;;4763369;30;20225;-86
2023/06/27 17:39:13;;;;;;;4.78;3.97;;;23.50;57.30;;;;;;4764874;30;20260;-86
2023/06/27 17:41:41;;;;;;;4.45;4.05;;;23.50;57.20;;;;;;4765129;30;20216;-85
2023/06/27 17:44:09;;;;;;;4.80;4.30;;;23.50;57.10;;;;;;4754180;30;20684;-84
2023/06/27 17:46:37;;;;;;;4.72;4.32;;;23.40;57.00;;;;;;4752303;30;20193;-84
2023/06/27 17:49:07;;;;;;;5.00;4.10;;;23.50;57.00;;;;;;4757877;30;20563;-86
2023/06/27 17:51:37;;;;;;;4.38;3.97;;;23.50;56.90;;;;;;4787940;29;20644;-86
2023/06/27 17:54:07;;;;;;;4.40;4.00;;;23.50;56.70;;;;;;4772820;30;20650;-86
2023/06/27 17:56:34;;;;;;;7.05;4.35;;;23.50;56.80;;;;;;4772562;30;20188;-85
2023/06/27 17:59:04;;;;;;;4.50;4.10;;;23.50;56.60;;;;;;4787242;30;20656;-85
2023/06/27 18:01:31;;;;;;;5.47;4.30;;;23.40;56.60;;;;;;4772523;30;20291;-86
2023/06/27 18:03:58;;;;;;;4.35;3.95;;;23.50;56.50;;;;;;4772641;30;20191;-86
2023/06/27 18:06:25;;;;;;;4.15;3.75;;;23.40;56.50;;;;;;4787025;30;20191;-85
2023/06/27 18:08:52;;;;;;;4.60;4.20;;;23.50;56.70;;;;;;4773342;30;20239;-85
2023/06/27 18:11:19;;;;;;;4.20;3.80;;;23.40;56.60;;;;;;4771769;30;20179;-83
2023/06/27 18:13:49;;;;;;;4.28;3.72;;;23.40;56.60;;;;;;4772282;30;20183;-84
2023/06/27 18:16:16;;;;;;;4.30;3.90;;;23.40;56.90;;;;;;4787282;30;20191;-85
2023/06/27 18:18:46;;;;;;;4.20;3.80;;;23.40;56.90;;;;;;4787207;30;20191;-84
2023/06/27 18:21:16;;;;;;;4.07;3.78;;;23.40;56.90;;;;;;4787419;30;20200;-84
2023/06/27 18:23:43;;;;;;;4.45;4.05;;;23.40;57.00;;;;;;4787051;30;20629;-85
2023/06/27 18:26:15;;;;;;;4.70;4.22;;;23.40;57.00;;;;;;4786877;30;20196;-84
2023/06/27 18:28:42;;;;;;;4.40;4.00;;;23.40;57.10;;;;;;4798425;29;20728;-85
2023/06/27 18:31:09;;;;;;;4.30;3.90;;;23.40;57.00;;;;;;4790927;29;20198;-85
2023/06/27 18:33:35;;;;;;;4.28;3.90;;;23.40;57.00;;;;;;4790883;29;20171;-85
2023/06/27 18:36:03;;;;;;;4.53;3.80;;;23.40;57.20;;;;;;4805569;29;20163;-85
2023/06/27 18:38:32;;;;;;;4.30;3.90;;;23.30;57.20;;;;;;4790817;29;20266;-84
2023/06/27 18:41:02;;;;;;;4.68;3.95;;;23.40;57.30;;;;;;4790899;29;20179;-85
2023/06/27 18:43:28;;;;;;;4.30;3.90;;;23.30;57.40;;;;;;4789766;29;20763;-86
2023/06/27 18:45:55;;;;;;;4.20;3.85;;;23.40;57.50;;;;;;4790374;29;20596;-84
2023/06/27 18:48:25;;;;;;;4.75;4.25;;;23.30;57.60;;;;;;4789959;29;20595;-84
2023/06/27 18:50:55;;;;;;;6.43;4.30;;;23.30;57.60;;;;;;4774842;29;20273;-87
2023/06/27 18:53:21;;;;;;;4.30;4.00;;;23.30;57.60;;;;;;4774893;29;20251;-85
2023/06/27 18:55:50;;;;;;;4.32;3.80;;;23.30;57.70;;;;;;4790975;29;20167;-85
2023/06/27 18:58:16;;;;;;;4.43;4.03;;;23.30;57.80;;;;;;4774622;29;20205;-83
2023/06/27 19:00:42;;;;;;;4.20;3.80;;;23.20;57.90;;;;;;4805170;29;20619;-84
2023/06/27 19:03:12;;;;;;;5.18;3.70;;;23.30;58.00;;;;;;4806380;29;20190;-84
2023/06/27 19:05:38;;;;;;;4.05;3.70;;;23.20;58.10;;;;;;4789771;29;20255;-84
2023/06/27 19:08:05;;;;;;;5.88;4.15;;;23.30;58.30;;;;;;4804977;29;20182;-85
2023/06/27 19:10:36;;;;;;;4.65;4.20;;;23.30;58.20;;;;;;4805173;29;20155;-84
2023/06/27 19:13:04;;;;;;;4.30;3.90;;;23.30;58.30;;;;;;4789462;29;20378;-84
2023/06/27 19:15:31;;;;;;;4.55;4.18;;;23.20;58.50;;;;;;4790142;29;20179;-85
2023/06/27 19:17:57;;;;;;;4.47;3.80;;;23.20;58.50;;;;;;4804988;29;20178;-84
2023/06/27 19:20:27;;;;;;;4.53;4.13;;;23.20;58.70;;;;;;4805185;29;20178;-84
2023/06/27 19:22:54;;;;;;;6.18;4.18;;;23.20;58.80;;;;;;4789305;29;20578;-84
2023/06/27 19:25:24;;;;;;;4.40;4.00;;;23.20;58.80;;;;;;4804931;29;20480;-84
2023/06/27 19:27:50;;;;;;;4.05;3.75;;;23.20;58.90;;;;;;4774130;30;20257;-86
2023/06/27 19:30:16;;;;;;;4.70;4.30;;;23.10;58.90;;;;;;4802057;29;20199;-84
2023/06/27 19:32:42;;;;;;;4.60;4.20;;;23.20;59.00;;;;;;4788375;29;20270;-86
2023/06/27 19:35:15;;;;;;;4.32;4.00;;;23.10;59.00;;;;;;4801950;29;20160;-84
2023/06/27 19:37:41;;;;;;;4.75;4.32;;;23.20;59.10;;;;;;4786249;30;20196;-85
2023/06/27 19:40:12;;;;;;;4.97;4.57;;;23.10;59.20;;;;;;4786818;30;20624;-85
2023/06/27 19:42:38;;;;;;;4.65;4.25;;;23.10;59.30;;;;;;4771161;30;20560;-84
2023/06/27 19:45:05;;;;;;;4.38;3.97;;;23.10;59.40;;;;;;4802140;29;20229;-83
2023/06/27 19:47:31;;;;;;;4.80;4.40;;;23.10;59.50;;;;;;4801810;29;20163;-84
2023/06/27 19:49:57;;;;;;;4.40;4.00;;;23.10;59.50;;;;;;4786675;30;20186;-85
2023/06/27 19:52:23;;;;;;;4.53;4.13;;;23.10;59.60;;;;;;4786636;30;20705;-85
2023/06/27 19:54:51;;;;;;;4.70;4.30;;;23.00;59.60;;;;;;4786730;30;20176;-84
2023/06/27 19:57:17;;;;;;;4.93;4.53;;;23.10;59.80;;;;;;4786564;30;20252;-85
2023/06/27 19:59:51;;;;;;;4.75;4.32;;;23.00;59.80;;;;;;4788189;29;20624;-85
2023/06/27 20:02:17;;;;;;;4.80;4.35;;;23.00;60.00;;;;;;4774218;30;20214;-85
2023/06/27 20:04:48;;;;;;;4.80;4.25;;;23.00;60.00;;;;;;4805054;29;20699;-84
2023/06/27 20:07:14;;;;;;;5.40;4.72;;;23.10;59.90;;;;;;4789339;30;20195;-84
2023/06/27 20:09:41;;;;;;;5.90;5.40;;;23.00;59.80;;;;;;4789948;30;20270;-85
2023/06/27 20:12:09;;;;;;;5.57;5.07;;;23.00;59.70;;;;;;4804714;29;20180;-85
2023/06/27 20:14:35;;;;;;;5.60;5.10;;;23.00;59.80;;;;;;4790855;29;20156;-85
2023/06/27 20:17:01;;;;;;;5.65;5.15;;;23.00;60.00;;;;;;4804750;29;20171;-85
2023/06/27 20:19:27;;;;;;;5.43;4.93;;;23.10;59.60;;;;;;4804566;29;20171;-84
2023/06/27 20:21:53;;;;;;;5.57;5.07;;;23.10;59.60;;;;;;4789356;30;20211;-84
2023/06/27 20:24:23;;;;;;;6.20;5.60;;;23.10;59.40;;;;;;4804931;29;20168;-85
2023/06/27 20:26:53;;;;;;;6.00;5.50;;;23.10;59.40;;;;;;4788948;29;20532;-83
2023/06/27 20:29:19;;;;;;;6.60;5.30;;;23.10;59.40;;;;;;4788772;30;20706;-85
2023/06/27 20:31:45;;;;;;;6.05;5.55;;;23.10;59.30;;;;;;4789638;30;20259;-84
2023/06/27 20:34:11;;;;;;;6.25;5.65;;;23.10;59.20;;;;;;4804468;29;20537;-85
2023/06/27 20:36:41;;;;;;;6.38;5.78;;;23.20;59.30;;;;;;4789270;30;20603;-85
2023/06/27 20:39:09;;;;;;;6.00;5.50;;;23.20;59.20;;;;;;4788870;30;20192;-83
2023/06/27 20:41:35;;;;;;;6.22;5.70;;;23.20;59.30;;;;;;4789513;30;20232;-85
2023/06/27 20:44:06;;;;;;;5.90;5.40;;;23.20;59.10;;;;;;4790377;29;20171;-85
2023/06/27 20:46:32;;;;;;;7.20;5.80;;;23.20;59.30;;;;;;4773803;30;20191;-85
2023/06/27 20:49:02;;;;;;;6.07;5.47;;;23.20;59.20;;;;;;4789330;30;20585;-85
2023/06/27 20:51:28;;;;;;;6.05;5.53;;;23.20;59.80;;;;;;4773783;30;20647;-86
2023/06/27 20:53:58;;;;;;;6.35;5.75;;;23.20;59.10;;;;;;4804192;29;20156;-85
2023/06/27 20:56:28;;;;;;;6.30;5.57;;;23.20;59.10;;;;;;4788528;29;20193;-86
2023/06/27 20:58:54;;;;;;;6.85;6.15;;;23.20;59.10;;;;;;4773766;30;20195;-85
2023/06/27 21:01:24;;;;;;;7.40;6.30;;;23.20;59.10;;;;;;4804199;29;20613;-84
2023/06/27 21:03:50;;;;;;;6.65;6.00;;;23.20;59.00;;;;;;4788494;30;20203;-85
2023/06/27 21:06:17;;;;;;;6.80;6.15;;;23.30;59.00;;;;;;4803793;29;20179;-86
2023/06/27 21:08:44;;;;;;;6.75;6.15;;;23.20;58.90;;;;;;4803694;29;20185;-83
2023/06/27 21:11:11;;;;;;;6.70;6.10;;;23.20;59.00;;;;;;4803565;29;20270;-85
2023/06/27 21:13:41;;;;;;;6.90;6.20;;;23.20;59.00;;;;;;4803994;29;20164;-85
2023/06/27 21:16:07;;;;;;;7.00;6.30;;;23.20;58.80;;;;;;4788211;29;20652;-85
2023/06/27 21:18:35;;;;;;;7.35;6.65;;;23.20;58.80;;;;;;4789808;29;20163;-84
2023/06/27 21:21:05;;;;;;;6.70;6.07;;;23.20;58.80;;;;;;4803577;29;20157;-86
2023/06/27 21:23:31;;;;;;;7.28;6.57;;;23.20;58.90;;;;;;4787997;29;20264;-83
2023/06/27 21:25:59;;;;;;;6.63;6.03;;;23.20;58.90;;;;;;4803561;29;20247;-87
2023/06/27 21:28:26;;;;;;;7.25;6.55;;;23.20;59.00;;;;;;4806418;29;20226;-84
2023/06/27 21:30:52;;;;;;;6.80;6.20;;;23.20;58.90;;;;;;4806553;29;20172;-85
2023/06/27 21:33:22;;;;;;;7.35;6.65;;;23.20;58.90;;;;;;4806737;29;20172;-86
2023/06/27 21:35:48;;;;;;;7.40;6.75;;;23.20;59.00;;;;;;4775882;29;20198;-83
2023/06/27 21:38:14;;;;;;;6.82;6.22;;;23.20;59.00;;;;;;4791923;29;20163;-86
2023/06/27 21:40:45;;;;;;;6.82;6.22;;;23.30;59.10;;;;;;4806446;29;20214;-86
2023/06/27 21:43:11;;;;;;;6.93;6.32;;;23.20;59.00;;;;;;4790836;29;20275;-85
2023/06/27 21:45:36;;;;;;;7.43;6.68;;;23.20;59.10;;;;;;4806367;29;20163;-86
2023/06/27 21:48:06;;;;;;;7.50;6.80;;;23.20;59.10;;;;;;4806266;29;20159;-84
2023/06/27 21:50:32;;;;;;;7.70;6.93;;;23.20;59.10;;;;;;4790473;29;20739;-85
2023/06/27 21:53:02;;;;;;;7.22;6.50;;;23.20;59.10;;;;;;4790950;29;20175;-85
2023/06/27 21:55:28;;;;;;;7.50;6.80;;;23.20;59.10;;;;;;4775649;29;20298;-84
2023/06/27 21:57:58;;;;;;;6.97;6.28;;;23.20;59.10;;;;;;4805920;29;20678;-86
2023/06/27 22:00:30;;;;;;;6.38;5.72;;;23.20;59.10;;;;;;4775287;29;20559;-85
2023/06/27 22:03:00;;;;;;;6.90;5.80;;;23.20;59.00;;;;;;4790345;29;20218;-85
2023/06/27 22:05:29;;;;;;;6.45;5.85;;;23.20;59.00;;;;;;4790324;29;20767;-86
2023/06/27 22:07:59;;;;;;;6.70;6.00;;;23.20;59.00;;;;;;4790631;29;20677;-87
2023/06/27 22:10:25;;;;;;;6.65;6.05;;;23.20;59.00;;;;;;4790116;29;20186;-86
2023/06/27 22:12:51;;;;;;;6.72;6.13;;;23.20;59.00;;;;;;4806879;29;20236;-86
2023/06/27 22:15:17;;;;;;;7.00;6.25;;;23.20;59.00;;;;;;4805692;29;20175;-87
2023/06/27 22:17:43;;;;;;;6.53;5.93;;;23.20;59.10;;;;;;4790470;29;20531;-85
2023/06/27 22:20:10;;;;;;;6.60;6.00;;;23.10;59.00;;;;;;4806764;29;20169;-86
2023/06/27 22:22:40;;;;;;;6.63;6.03;;;23.20;59.10;;;;;;4805090;29;20202;-85
2023/06/27 22:25:10;;;;;;;6.57;5.97;;;23.20;59.00;;;;;;4789932;29;20190;-84
2023/06/27 22:27:36;;;;;;;6.47;5.88;;;23.20;59.00;;;;;;4772362;30;20234;-85
2023/06/27 22:30:07;;;;;;;6.80;6.20;;;23.20;59.00;;;;;;4787770;29;20171;-86
2023/06/27 22:32:33;;;;;;;6.43;5.82;;;23.20;59.00;;;;;;4787057;30;20294;-85
2023/06/27 22:35:03;;;;;;;7.30;6.60;;;23.20;59.10;;;;;;4802577;29;20171;-85
2023/06/27 22:37:29;;;;;;;6.50;5.90;;;23.20;59.10;;;;;;4787291;29;20543;-84
2023/06/27 22:39:59;;;;;;;6.55;5.95;;;23.10;59.00;;;;;;4802288;29;20277;-84
2023/06/27 22:42:25;;;;;;;6.85;6.25;;;23.20;59.00;;;;;;4786640;30;20310;-84
2023/06/27 22:44:51;;;;;;;6.65;6.05;;;23.20;59.10;;;;;;4802124;29;20171;-85
2023/06/27 22:47:21;;;;;;;7.60;6.90;;;23.20;59.00;;;;;;4788407;29;20160;-83
2023/06/27 22:49:48;;;;;;;6.40;5.80;;;23.20;59.10;;;;;;4786717;30;20244;-85
2023/06/27 22:52:14;;;;;;;7.38;6.68;;;23.20;59.10;;;;;;4788278;29;20164;-83
2023/06/27 22:54:40;;;;;;;7.60;6.82;;;23.10;59.00;;;;;;4802358;29;20628;-85
2023/06/27 22:57:06;;;;;;;6.53;5.93;;;23.10;59.10;;;;;;4787423;30;20167;-85
2023/06/27 22:59:32;;;;;;;7.13;6.43;;;23.10;59.10;;;;;;4788184;29;20691;-83
2023/06/27 23:01:58;;;;;;;7.32;6.63;;;23.10;59.10;;;;;;4787217;30;20308;-83
2023/06/27 23:04:24;;;;;;;6.63;6.03;;;23.20;59.10;;;;;;4786939;30;20591;-85
2023/06/27 23:06:55;;;;;;;7.40;6.70;;;23.10;59.10;;;;;;4787457;30;20172;-85
2023/06/27 23:09:21;;;;;;;6.47;5.88;;;23.10;59.10;;;;;;4786698;30;20188;-85
2023/06/27 23:11:47;;;;;;;6.85;6.25;;;23.10;59.10;;;;;;4788179;29;20167;-86
2023/06/27 23:14:12;;;;;;;6.70;6.07;;;23.10;59.10;;;;;;4786872;29;20171;-84
2023/06/27 23:16:38;;;;;;;7.25;6.55;;;23.10;59.10;;;;;;4801906;29;20244;-84
2023/06/27 23:19:06;;;;;;;7.13;6.43;;;23.10;59.20;;;;;;4802466;29;20178;-86
2023/06/27 23:21:34;;;;;;;7.30;6.38;;;23.10;59.20;;;;;;4787119;30;20180;-86
2023/06/27 23:24:01;;;;;;;6.78;6.18;;;23.10;59.10;;;;;;4801671;29;20164;-86
2023/06/27 23:26:28;;;;;;;6.75;6.05;;;23.10;59.10;;;;;;4802197;29;20163;-84
2023/06/27 23:29:04;;;;;;;6.95;6.25;;;23.10;59.10;;;;;;4789506;29;20289;-84
2023/06/27 23:31:34;;;;;;;6.63;6.00;;;23.10;59.10;;;;;;4804937;29;20174;-86
2023/06/27 23:34:05;;;;;;;6.35;5.75;;;23.10;59.00;;;;;;4805826;29;20201;-86
2023/06/27 23:36:39;;;;;;;6.50;5.90;;;23.10;59.10;;;;;;4778099;29;20682;-84
2023/06/27 23:39:06;;;;;;;7.20;6.50;;;23.10;59.10;;;;;;4778327;29;20213;-86
2023/06/27 23:41:32;;;;;;;6.45;5.85;;;23.00;59.10;;;;;;4793168;29;20171;-85
2023/06/27 23:43:58;;;;;;;6.78;6.03;;;23.10;59.10;;;;;;4808288;29;20178;-85
2023/06/27 23:46:28;;;;;;;7.38;6.68;;;23.10;59.10;;;;;;4808658;29;20496;-86
2023/06/27 23:48:54;;;;;;;7.18;6.55;;;23.10;59.10;;;;;;4777664;29;20186;-85
2023/06/27 23:51:24;;;;;;;6.80;6.20;;;23.10;59.10;;;;;;4793411;29;20186;-87
2023/06/27 23:53:49;;;;;;;6.38;5.78;;;23.10;59.10;;;;;;4792651;29;20213;-85
2023/06/27 23:56:19;;;;;;;7.30;6.60;;;23.10;59.10;;;;;;4808002;29;20190;-84
2023/06/27 23:58:44;;;;;;;7.47;6.78;;;23.10;59.10;;;;;;4808155;29;20584;-85
